Time;durP1;ratioP1;P1;durP2;ratioP2;P2;SDS_P1;SDS_P2;PMS_P1;PMS_P2;Temp;Humidity;BMP_temperature;BMP_pressure;BME280_temperature;BME280_humidity;BME280_pressure;Samples;Min_cycle;Max_cycle;Signal;HPM_P1;HPM_P2
2023/09/08 00:01:48;;;;;;;9.32;7.10;;;;;;;21.25;100.00;-18598.03;5005887;28;20065;-75
2023/09/08 00:04:14;;;;;;;8.32;6.30;;;;;;;21.17;100.00;-18595.97;5024398;28;20045;-75
2023/09/08 00:06:40;;;;;;;8.57;6.57;;;;;;;21.14;100.00;-18595.31;5020701;28;20107;-75
2023/09/08 00:09:06;;;;;;;11.25;7.00;;;;;;;21.13;100.00;-18594.91;5023065;28;20045;-75
2023/09/08 00:11:32;;;;;;;8.43;6.20;;;;;;;21.09;100.00;-18593.81;5022970;28;20440;-75
2023/09/08 00:13:57;;;;;;;9.43;7.00;;;;;;;21.00;100.00;-18591.50;5022610;28;20052;-76
2023/09/08 00:16:22;;;;;;;9.45;6.28;;;;;;;21.05;100.00;-18592.72;5023582;28;20041;-75
2023/09/08 00:18:48;;;;;;;10.20;6.57;;;;;;;21.02;100.00;-18591.91;5022666;28;20585;-75
2023/09/08 00:21:13;;;;;;;9.15;5.97;;;;;;;21.03;100.00;-18592.19;5005529;28;20077;-75
2023/09/08 00:23:39;;;;;;;8.65;6.18;;;;;;;20.92;100.00;-18589.47;5022874;28;20083;-75
2023/09/08 00:26:04;;;;;;;9.15;6.28;;;;;;;20.83;100.00;-18587.00;5023893;28;20044;-76
2023/09/08 00:28:29;;;;;;;7.95;6.28;;;;;;;20.83;100.00;-18586.88;5024485;28;20497;-76
2023/09/08 00:30:55;;;;;;;9.80;6.47;;;;;;;20.79;100.00;-18585.78;5024779;28;20044;-76
2023/09/08 00:33:22;;;;;;;9.57;6.63;;;;;;;20.67;100.00;-18582.66;5025463;28;20037;-76
2023/09/08 00:35:50;;;;;;;9.45;6.97;;;;;;;20.74;100.00;-18584.56;5024755;28;20413;-76
2023/09/08 00:38:16;;;;;;;8.50;6.60;;;;;;;20.63;100.00;-18581.56;5012188;28;20148;-75
2023/09/08 00:40:41;;;;;;;11.18;7.13;;;;;;;20.67;100.00;-18582.78;5025380;28;20123;-75
2023/09/08 00:43:07;;;;;;;9.27;6.43;;;;;;;20.66;100.00;-18582.53;5025494;28;20041;-75
2023/09/08 00:45:38;;;;;;;11.05;6.82;;;;;;;20.80;100.00;-18586.19;5009506;28;20083;-75
2023/09/08 00:48:04;;;;;;;10.07;7.20;;;;;;;20.60;100.00;-18580.88;5027268;28;20124;-76
2023/09/08 00:50:29;;;;;;;9.38;6.82;;;;;;;20.68;100.00;-18582.94;5025462;28;20136;-75
2023/09/08 00:52:55;;;;;;;10.75;7.50;;;;;;;20.61;100.00;-18581.16;5025756;28;20107;-75
2023/09/08 00:55:20;;;;;;;13.20;8.05;;;;;;;20.49;100.00;-18577.88;5025079;28;20096;-75
2023/09/08 00:57:46;;;;;;;10.80;7.78;;;;;;;20.33;100.00;-18573.53;5024609;28;20041;-75
2023/09/08 01:00:12;;;;;;;10.60;7.40;;;;;;;20.29;100.00;-18572.72;5024281;28;20461;-76
2023/09/08 01:02:37;;;;;;;10.38;7.85;;;;;;;20.33;100.00;-18573.66;4993663;28;20405;-75
2023/09/08 01:05:03;;;;;;;10.95;7.25;;;;;;;20.39;100.00;-18575.31;5008771;28;20033;-75
2023/09/08 01:07:30;;;;;;;10.90;7.80;;;;;;;20.39;100.00;-18575.31;5024752;28;20048;-76
2023/09/08 01:09:56;;;;;;;9.52;7.38;;;;;;;20.27;100.00;-18572.16;5025827;28;20060;-76
2023/09/08 01:12:22;;;;;;;12.13;8.10;;;;;;;20.23;100.00;-18570.94;5027239;28;20040;-76
2023/09/08 01:14:47;;;;;;;12.30;8.48;;;;;;;20.18;100.00;-18569.72;5025513;28;20041;-75
2023/09/08 01:17:12;;;;;;;10.25;7.85;;;;;;;20.09;100.00;-18567.13;5025491;28;20045;-76
2023/09/08 01:19:38;;;;;;;10.98;7.65;;;;;;;20.05;100.00;-18566.31;5023270;28;20037;-75
2023/09/08 01:22:29;;;;;;;11.45;7.95;;;;;;;19.97;100.00;-18564.16;5007974;28;20051;-75
2023/09/08 01:25:16;;;;;;;11.70;8.32;;;;;;;20.05;100.00;-18566.31;5025155;28;20053;-76
2023/09/08 01:27:49;;;;;;;12.93;7.90;;;;;;;20.04;100.00;-18566.03;5025756;28;20038;-75
2023/09/08 01:30:16;;;;;;;9.75;7.28;;;;;;;19.94;100.00;-18563.31;5025274;28;20132;-75
2023/09/08 01:32:42;;;;;;;11.40;8.30;;;;;;;19.86;100.00;-18561.00;5021101;28;20049;-76
2023/09/08 01:35:08;;;;;;;9.68;7.80;;;;;;;19.75;100.00;-18558.16;5012857;28;20052;-75
2023/09/08 01:37:33;;;;;;;11.07;8.73;;;;;;;19.75;100.00;-18558.28;5025670;28;20060;-75
2023/09/08 01:39:59;;;;;;;12.55;8.20;;;;;;;19.79;100.00;-18559.25;5025525;28;20042;-75
2023/09/08 01:42:24;;;;;;;11.95;8.85;;;;;;;19.83;100.00;-18560.34;5027941;28;20140;-75
2023/09/08 01:44:49;;;;;;;13.13;8.18;;;;;;;19.72;100.00;-18557.34;5026707;28;20037;-75
2023/09/08 01:47:16;;;;;;;10.32;8.25;;;;;;;19.81;100.00;-18559.91;5026725;28;20038;-75
2023/09/08 01:49:41;;;;;;;12.80;8.55;;;;;;;19.85;100.00;-18560.88;5024187;28;20045;-75
2023/09/08 01:52:07;;;;;;;11.52;8.57;;;;;;;19.75;100.00;-18558.28;5027800;28;20412;-75
2023/09/08 01:54:32;;;;;;;11.63;8.48;;;;;;;19.69;100.00;-18556.53;5026174;28;20103;-75
2023/09/08 01:56:57;;;;;;;10.70;8.60;;;;;;;19.67;100.00;-18555.97;5027717;28;20069;-75
2023/09/08 01:59:23;;;;;;;12.23;8.63;;;;;;;19.73;100.00;-18557.75;5026399;28;20053;-76
2023/09/08 02:01:48;;;;;;;10.23;8.20;;;;;;;19.45;100.00;-18550.25;5026027;28;20049;-75
2023/09/08 02:04:13;;;;;;;11.65;8.45;;;;;;;19.52;100.00;-18552.03;5023668;28;20049;-75
2023/09/08 02:06:39;;;;;;;13.00;8.90;;;;;;;19.62;100.00;-18554.75;5026504;28;20045;-75
2023/09/08 02:09:04;;;;;;;10.35;7.90;;;;;;;19.56;100.00;-18553.25;5027147;28;20045;-76
2023/09/08 02:11:29;;;;;;;10.85;8.50;;;;;;;19.35;100.00;-18547.53;5027192;28;20386;-75
2023/09/08 02:13:55;;;;;;;11.82;8.90;;;;;;;19.57;100.00;-18553.50;5026710;28;20048;-76
2023/09/08 02:16:20;;;;;;;10.18;7.93;;;;;;;19.55;100.00;-18552.97;5025568;28;20045;-76
2023/09/08 02:18:45;;;;;;;11.82;8.90;;;;;;;19.72;100.00;-18557.47;5025524;28;20442;-76
2023/09/08 02:21:11;;;;;;;12.82;8.82;;;;;;;19.67;100.00;-18555.97;5026285;28;20041;-75
2023/09/08 02:23:37;;;;;;;12.40;8.93;;;;;;;19.80;100.00;-18559.50;5006062;28;20084;-76
2023/09/08 02:26:02;;;;;;;12.57;9.20;;;;;;;19.44;100.00;-18549.84;5007167;28;20041;-76
2023/09/08 02:28:28;;;;;;;9.73;7.97;;;;;;;19.46;100.00;-18550.53;5024373;28;20041;-76
2023/09/08 02:30:54;;;;;;;12.95;9.05;;;;;;;19.48;100.00;-18551.06;5026064;28;20119;-76
2023/09/08 02:33:19;;;;;;;11.27;8.52;;;;;;;19.57;100.00;-18553.50;5026131;28;20429;-76
2023/09/08 02:35:45;;;;;;;13.50;9.00;;;;;;;19.60;100.00;-18554.19;5007814;28;20045;-75
2023/09/08 02:38:10;;;;;;;11.82;8.73;;;;;;;19.68;100.00;-18556.25;5026010;28;20137;-75
2023/09/08 02:40:36;;;;;;;16.52;10.23;;;;;;;19.58;100.00;-18553.78;5022577;28;20465;-75
2023/09/08 02:43:02;;;;;;;14.88;10.02;;;;;;;19.61;100.00;-18554.59;5027545;28;20049;-75
2023/09/08 02:45:27;;;;;;;12.50;9.55;;;;;;;19.63;100.00;-18555.00;5008294;28;20046;-76
2023/09/08 02:47:53;;;;;;;14.77;8.95;;;;;;;19.64;100.00;-18555.28;5024658;28;20501;-75
2023/09/08 02:50:18;;;;;;;15.15;9.90;;;;;;;19.68;100.00;-18556.38;5008585;28;20041;-76
2023/09/08 02:52:44;;;;;;;12.90;9.00;;;;;;;19.74;100.00;-18557.88;5008716;28;20037;-76
2023/09/08 02:55:09;;;;;;;13.80;9.38;;;;;;;19.71;100.00;-18557.06;5024574;28;20067;-75
2023/09/08 02:57:35;;;;;;;13.88;9.82;;;;;;;19.75;100.00;-18558.28;5024756;28;20087;-75
2023/09/08 03:00:00;;;;;;;14.32;10.20;;;;;;;19.74;100.00;-18558.00;5024942;28;20045;-76
2023/09/08 03:02:26;;;;;;;15.38;9.68;;;;;;;19.77;100.00;-18558.84;5026807;28;20045;-75
2023/09/08 03:04:52;;;;;;;15.30;10.27;;;;;;;19.78;100.00;-18558.97;5022518;28;20053;-75
2023/09/08 03:07:17;;;;;;;14.23;10.52;;;;;;;19.74;100.00;-18557.88;5024865;28;20045;-75
2023/09/08 03:09:43;;;;;;;15.15;10.35;;;;;;;20.00;100.00;-18564.97;5024516;28;20029;-75
2023/09/08 03:12:08;;;;;;;13.73;10.52;;;;;;;19.90;100.00;-18562.22;5025811;28;20517;-76
2023/09/08 03:14:33;;;;;;;14.13;10.07;;;;;;;19.93;100.00;-18563.06;5024069;28;20481;-75
2023/09/08 03:16:59;;;;;;;17.23;11.05;;;;;;;20.01;100.00;-18565.09;5022106;28;20064;-76
2023/09/08 03:19:24;;;;;;;13.93;10.10;;;;;;;20.08;100.00;-18567.00;5005387;28;20073;-75
2023/09/08 03:21:50;;;;;;;17.90;11.18;;;;;;;20.12;100.00;-18568.09;5008071;28;20095;-75
2023/09/08 03:24:15;;;;;;;14.93;10.48;;;;;;;20.18;100.00;-18569.59;5014392;28;20045;-75
2023/09/08 03:26:41;;;;;;;14.10;10.57;;;;;;;20.22;100.00;-18570.81;5023060;28;20303;-75
2023/09/08 03:29:06;;;;;;;15.82;9.68;;;;;;;20.03;100.00;-18565.78;5026190;28;20493;-75
2023/09/08 03:31:32;;;;;;;14.73;10.30;;;;;;;20.00;100.00;-18564.97;5023649;28;20065;-76
2023/09/08 03:33:57;;;;;;;15.52;10.48;;;;;;;20.13;100.00;-18568.22;5024268;28;20511;-76
2023/09/08 03:36:23;;;;;;;15.38;10.43;;;;;;;19.84;100.00;-18560.59;5021861;28;20037;-76
2023/09/08 03:38:48;;;;;;;14.85;10.10;;;;;;;19.92;100.00;-18562.78;5023822;28;20167;-75
2023/09/08 03:41:14;;;;;;;13.23;10.52;;;;;;;19.89;100.00;-18561.97;5024496;28;20052;-75
2023/09/08 03:43:39;;;;;;;15.43;10.57;;;;;;;19.93;100.00;-18562.91;5004366;28;20033;-76
2023/09/08 03:46:05;;;;;;;14.77;10.27;;;;;;;19.81;100.00;-18559.78;5024897;28;20415;-76
2023/09/08 03:48:30;;;;;;;14.07;9.93;;;;;;;19.80;100.00;-18559.66;5024732;28;20124;-75
2023/09/08 03:50:56;;;;;;;15.88;10.63;;;;;;;19.82;100.00;-18560.06;5021410;28;20030;-76
2023/09/08 03:53:21;;;;;;;15.27;11.35;;;;;;;19.88;100.00;-18561.56;5024404;28;20107;-75
2023/09/08 03:55:46;;;;;;;14.68;10.82;;;;;;;19.95;100.00;-18563.59;5024190;28;20049;-76
2023/09/08 03:58:12;;;;;;;14.93;10.73;;;;;;;19.94;100.00;-18563.31;5021228;28;20132;-75
2023/09/08 04:00:37;;;;;;;14.48;11.32;;;;;;;19.86;100.00;-18561.16;4996703;28;20840;-76
2023/09/08 04:03:03;;;;;;;15.43;10.68;;;;;;;19.85;100.00;-18560.88;5009399;28;20055;-76
2023/09/08 04:05:29;;;;;;;16.90;10.05;;;;;;;19.94;100.00;-18563.31;5029189;28;20041;-75
2023/09/08 04:07:54;;;;;;;13.82;10.15;;;;;;;19.83;100.00;-18560.34;5029535;28;20057;-76
2023/09/08 04:10:19;;;;;;;15.25;11.07;;;;;;;19.91;100.00;-18562.38;5012696;28;20041;-76
2023/09/08 04:12:45;;;;;;;14.27;10.40;;;;;;;19.62;100.00;-18554.75;5028998;28;20125;-76
2023/09/08 04:15:10;;;;;;;13.27;10.65;;;;;;;19.66;100.00;-18555.69;5028983;28;20041;-76
2023/09/08 04:17:37;;;;;;;13.32;10.15;;;;;;;19.61;100.00;-18554.59;5028956;28;20076;-76
2023/09/08 04:20:05;;;;;;;13.57;10.25;;;;;;;19.60;100.00;-18554.34;5027526;28;20041;-76
2023/09/08 04:22:30;;;;;;;14.77;10.15;;;;;;;19.57;100.00;-18553.50;5028750;28;20053;-76
2023/09/08 04:24:57;;;;;;;15.43;11.43;;;;;;;19.69;100.00;-18556.53;5028389;28;20068;-76
2023/09/08 04:27:22;;;;;;;17.05;12.32;;;;;;;19.66;100.00;-18555.69;5030010;28;20044;-76
2023/09/08 04:29:48;;;;;;;15.18;11.27;;;;;;;19.67;100.00;-18555.97;5026044;28;20041;-77
2023/09/08 04:32:13;;;;;;;17.08;11.63;;;;;;;19.53;100.00;-18552.44;5027091;28;20037;-76
2023/09/08 04:34:40;;;;;;;15.32;11.85;;;;;;;19.53;100.00;-18552.28;5014012;28;20109;-77
2023/09/08 04:37:06;;;;;;;16.60;11.70;;;;;;;19.45;100.00;-18550.09;5011371;28;20072;-76
2023/09/08 04:39:32;;;;;;;15.40;11.52;;;;;;;19.42;100.00;-18549.28;5029477;28;20509;-76
2023/09/08 04:41:57;;;;;;;16.33;11.63;;;;;;;19.48;100.00;-18551.06;5011721;28;20037;-76
2023/09/08 04:44:23;;;;;;;16.48;11.75;;;;;;;19.39;100.00;-18548.75;5029363;28;20273;-75
2023/09/08 04:46:48;;;;;;;15.18;10.40;;;;;;;19.38;100.00;-18548.34;5017119;28;20034;-77
2023/09/08 04:49:14;;;;;;;16.42;11.15;;;;;;;19.35;100.00;-18547.53;5031012;28;20033;-76
2023/09/08 04:51:39;;;;;;;15.70;11.40;;;;;;;19.29;100.00;-18545.88;5025029;28;20055;-77
2023/09/08 04:54:04;;;;;;;16.13;11.30;;;;;;;19.28;100.00;-18545.63;5028989;28;20041;-76
2023/09/08 04:56:30;;;;;;;17.38;11.32;;;;;;;19.25;100.00;-18544.78;5021966;28;20045;-76
2023/09/08 04:58:55;;;;;;;14.52;11.77;;;;;;;19.40;100.00;-18548.88;5023900;28;20140;-76
2023/09/08 05:01:21;;;;;;;15.93;11.10;;;;;;;19.36;100.00;-18547.94;5031578;28;20040;-77
2023/09/08 05:03:46;;;;;;;16.30;12.23;;;;;;;19.25;100.00;-18544.94;5010320;28;20132;-76
2023/09/08 05:06:13;;;;;;;15.63;11.60;;;;;;;19.15;100.00;-18542.34;5026760;28;20033;-76
2023/09/08 05:08:39;;;;;;;15.32;12.15;;;;;;;19.14;100.00;-18542.06;5026146;28;20042;-76
2023/09/08 05:11:04;;;;;;;17.35;12.73;;;;;;;19.08;100.00;-18540.44;5006077;28;20060;-77
2023/09/08 05:13:30;;;;;;;15.65;12.20;;;;;;;19.01;100.00;-18538.41;5028687;28;20041;-75
2023/09/08 05:16:00;;;;;;;15.20;11.65;;;;;;;18.95;100.00;-18536.91;5025509;28;20049;-75
2023/09/08 05:18:28;;;;;;;15.40;12.48;;;;;;;18.94;100.00;-18536.63;5027443;28;20099;-76
2023/09/08 05:20:53;;;;;;;17.30;11.90;;;;;;;18.97;100.00;-18537.44;5027359;28;20388;-75
2023/09/08 05:23:19;;;;;;;15.85;11.60;;;;;;;18.93;100.00;-18536.50;5027388;28;20037;-75
2023/09/08 05:25:45;;;;;;;14.93;10.90;;;;;;;19.07;100.00;-18540.16;5027056;28;20045;-76
2023/09/08 05:28:10;;;;;;;16.88;12.57;;;;;;;19.20;100.00;-18543.56;5005642;28;20659;-76
2023/09/08 05:30:35;;;;;;;16.60;12.05;;;;;;;19.27;100.00;-18545.47;5022725;28;20069;-75
2023/09/08 05:33:01;;;;;;;16.83;11.68;;;;;;;19.33;100.00;-18547.13;5026942;28;20390;-75
2023/09/08 05:35:26;;;;;;;17.80;12.02;;;;;;;19.36;100.00;-18547.78;5027188;28;20046;-75
2023/09/08 05:37:52;;;;;;;14.70;11.98;;;;;;;19.56;100.00;-18553.09;5027392;28;20045;-76
2023/09/08 05:40:18;;;;;;;17.38;11.90;;;;;;;19.72;100.00;-18557.34;5007405;28;20060;-75
2023/09/08 05:42:44;;;;;;;16.50;11.75;;;;;;;19.83;100.00;-18560.34;5021082;28;20041;-75
2023/09/08 05:45:09;;;;;;;15.20;11.18;;;;;;;19.90;100.00;-18562.22;5018884;28;20097;-76
2023/09/08 05:47:35;;;;;;;20.77;11.98;;;;;;;19.90;100.00;-18562.09;5004547;28;20055;-76
2023/09/08 05:50:01;;;;;;;16.02;11.43;;;;;;;19.94;100.00;-18563.19;5023517;28;20041;-76
2023/09/08 05:52:28;;;;;;;16.05;11.75;;;;;;;19.99;100.00;-18564.56;5022083;28;20052;-75
2023/09/08 05:54:53;;;;;;;17.10;10.77;;;;;;;19.93;100.00;-18563.06;5019229;28;20045;-76
2023/09/08 05:57:19;;;;;;;16.13;11.43;;;;;;;19.95;100.00;-18563.59;5006946;28;20762;-76
2023/09/08 05:59:44;;;;;;;16.65;11.43;;;;;;;20.07;100.00;-18566.72;5021540;28;20122;-76
2023/09/08 06:02:09;;;;;;;13.38;10.50;;;;;;;20.03;100.00;-18565.78;5020943;28;20045;-75
2023/09/08 06:04:35;;;;;;;18.88;11.25;;;;;;;20.17;100.00;-18569.44;5005774;28;20045;-76
2023/09/08 06:07:00;;;;;;;17.00;10.60;;;;;;;20.38;100.00;-18574.91;5025915;28;20128;-75
2023/09/08 06:09:25;;;;;;;15.20;11.02;;;;;;;20.55;100.00;-18579.53;5026244;28;20065;-75
2023/09/08 06:11:51;;;;;;;14.50;11.48;;;;;;;20.69;100.00;-18583.19;5023564;28;20668;-76
2023/09/08 06:14:16;;;;;;;15.32;10.70;;;;;;;20.77;100.00;-18585.25;5025567;28;20153;-76
2023/09/08 06:16:41;;;;;;;13.90;10.38;;;;;;;20.75;100.00;-18584.69;5025606;28;20061;-76
2023/09/08 06:19:07;;;;;;;16.25;10.50;;;;;;;20.88;100.00;-18588.38;5023568;28;20046;-76
2023/09/08 06:21:32;;;;;;;14.27;10.38;;;;;;;21.00;100.00;-18591.50;5024759;28;20046;-76
2023/09/08 06:23:57;;;;;;;14.05;10.93;;;;;;;21.04;100.00;-18592.44;5025044;28;20045;-76
2023/09/08 06:26:23;;;;;;;12.85;9.85;;;;;;;21.14;100.00;-18595.31;5024900;28;20505;-76
2023/09/08 06:28:48;;;;;;;16.00;10.35;;;;;;;21.25;100.00;-18598.16;5006033;28;20426;-75
2023/09/08 06:31:14;;;;;;;14.02;10.23;;;;;;;21.37;100.00;-18601.28;5025812;28;20033;-76
2023/09/08 06:33:40;;;;;;;13.98;10.15;;;;;;;21.52;100.00;-18605.22;5022661;28;20037;-75
2023/09/08 06:36:06;;;;;;;12.40;9.52;;;;;;;21.60;100.00;-18607.53;5023107;28;20099;-76
2023/09/08 06:38:32;;;;;;;13.68;10.25;;;;;;;21.66;100.00;-18609.03;5023202;28;20463;-76
2023/09/08 06:40:57;;;;;;;13.18;9.55;;;;;;;21.77;100.00;-18611.88;5022770;28;20054;-75
2023/09/08 06:43:23;;;;;;;13.57;10.27;;;;;;;21.92;100.00;-18615.97;5025083;28;20071;-76
2023/09/08 06:45:49;;;;;;;13.35;9.32;;;;;;;22.03;100.00;-18618.81;5020531;28;20033;-75
2023/09/08 06:48:15;;;;;;;14.43;9.43;;;;;;;22.05;100.00;-18619.38;5025661;28;20099;-76
2023/09/08 06:50:40;;;;;;;11.20;8.80;;;;;;;22.09;100.00;-18620.59;5017847;28;20034;-75
2023/09/08 06:53:06;;;;;;;11.85;8.60;;;;;;;22.19;100.00;-18623.03;5023727;28;20060;-75
2023/09/08 06:55:31;;;;;;;11.32;8.68;;;;;;;22.24;100.00;-18624.38;5015671;28;20038;-76
2023/09/08 06:57:57;;;;;;;11.77;8.05;;;;;;;22.39;100.00;-18628.34;5025385;28;20037;-75
2023/09/08 07:00:23;;;;;;;13.48;8.45;;;;;;;22.52;100.00;-18631.84;5020574;28;20140;-75
2023/09/08 07:02:49;;;;;;;12.70;8.48;;;;;;;22.75;100.00;-18637.97;5023607;28;20041;-75
2023/09/08 07:05:15;;;;;;;12.52;8.48;;;;;;;22.84;100.00;-18640.28;5021483;28;20064;-76
2023/09/08 07:07:41;;;;;;;10.27;8.00;;;;;;;22.94;100.00;-18643.00;5021904;28;20062;-77
2023/09/08 07:10:07;;;;;;;12.65;8.60;;;;;;;23.00;100.00;-18644.63;5025043;28;20072;-76
2023/09/08 07:12:32;;;;;;;9.55;7.47;;;;;;;23.21;100.00;-18650.19;5024918;28;20052;-76
2023/09/08 07:14:59;;;;;;;10.25;7.82;;;;;;;23.24;100.00;-18650.88;5006328;28;20415;-75
2023/09/08 07:17:25;;;;;;;12.13;7.93;;;;;;;23.28;100.00;-18652.09;5020152;28;21068;-76
2023/09/08 07:19:50;;;;;;;10.40;7.50;;;;;;;23.48;100.00;-18657.38;5024184;28;20049;-76
2023/09/08 07:22:16;;;;;;;10.00;7.85;;;;;;;23.38;100.00;-18654.78;5022395;28;20051;-76
2023/09/08 07:24:41;;;;;;;11.43;7.50;;;;;;;23.55;100.00;-18659.13;5023767;28;20046;-76
2023/09/08 07:27:07;;;;;;;10.77;7.55;;;;;;;23.62;100.00;-18661.03;5020428;28;20045;-75
2023/09/08 07:29:32;;;;;;;10.88;7.45;;;;;;;23.74;100.00;-18664.28;5022957;28;20125;-75
2023/09/08 07:31:58;;;;;;;10.88;8.63;;;;;;;23.92;100.00;-18669.03;5007303;28;20088;-75
2023/09/08 07:34:23;;;;;;;12.52;7.88;;;;;;;24.06;99.66;-18672.84;5023479;28;20474;-75
2023/09/08 07:36:48;;;;;;;9.45;6.97;;;;;;;24.16;99.05;-18675.41;5021874;28;20041;-75
2023/09/08 07:39:14;;;;;;;12.32;7.47;;;;;;;24.13;99.17;-18674.59;5006705;28;20045;-75
2023/09/08 07:41:40;;;;;;;9.43;6.63;;;;;;;24.39;98.78;-18681.50;5021975;28;20049;-76
2023/09/08 07:44:09;;;;;;;10.30;7.05;;;;;;;24.42;97.09;-18682.19;5024357;28;20037;-76
2023/09/08 07:46:34;;;;;;;10.13;6.80;;;;;;;24.45;95.48;-18683.00;5005423;28;20122;-76
2023/09/08 07:49:00;;;;;;;10.75;7.18;;;;;;;24.75;95.75;-18691.00;5023476;28;20516;-75
2023/09/08 07:51:26;;;;;;;7.50;6.20;;;;;;;24.83;92.46;-18693.16;5024690;28;20037;-75
2023/09/08 07:53:53;;;;;;;9.70;6.88;;;;;;;25.11;90.51;-18700.47;5023794;28;20108;-76
2023/09/08 07:56:18;;;;;;;10.82;5.80;;;;;;;25.14;88.41;-18701.41;5021818;28;20096;-75
2023/09/08 07:58:44;;;;;;;7.85;5.55;;;;;;;25.28;86.03;-18705.06;5023278;28;20041;-75
2023/09/08 08:01:09;;;;;;;7.47;4.93;;;;;;;25.56;89.83;-18712.38;5023844;28;20486;-75
2023/09/08 08:03:35;;;;;;;7.28;4.80;;;;;;;25.56;84.06;-18712.53;5020833;28;20045;-75
2023/09/08 08:06:00;;;;;;;6.70;5.05;;;;;;;25.60;79.52;-18713.47;5003898;28;20076;-75
2023/09/08 08:08:26;;;;;;;6.57;5.30;;;;;;;25.57;84.74;-18712.66;5006970;28;20045;-76
2023/09/08 08:10:51;;;;;;;12.95;5.53;;;;;;;25.56;85.51;-18712.38;5006251;28;20544;-75
2023/09/08 08:13:17;;;;;;;7.82;5.13;;;;;;;25.74;80.60;-18717.25;5003932;28;20048;-75
2023/09/08 08:15:45;;;;;;;8.27;5.40;;;;;;;25.81;81.68;-18719.00;5021988;28;20045;-75
2023/09/08 08:18:10;;;;;;;8.70;5.15;;;;;;;26.05;77.89;-18725.38;5023767;28;20038;-75
2023/09/08 08:20:36;;;;;;;6.60;4.88;;;;;;;26.25;77.58;-18730.78;5005240;28;20041;-75
2023/09/08 08:23:02;;;;;;;7.72;4.80;;;;;;;26.38;73.76;-18734.03;5006883;28;20085;-75
2023/09/08 08:25:28;;;;;;;8.68;5.20;;;;;;;26.47;71.63;-18736.44;5022830;28;20121;-75
2023/09/08 08:27:56;;;;;;;8.68;5.15;;;;;;;26.16;74.90;-18728.22;5023173;28;20121;-76
2023/09/08 08:30:21;;;;;;;7.93;4.75;;;;;;;26.26;74.12;-18731.03;5025305;28;20504;-76
2023/09/08 08:32:47;;;;;;;6.15;4.32;;;;;;;26.38;70.30;-18734.16;5020760;28;20056;-75
2023/09/08 08:35:12;;;;;;;6.90;4.28;;;;;;;26.66;72.16;-18741.59;5025046;28;20049;-76
2023/09/08 08:37:40;;;;;;;7.20;4.35;;;;;;;27.02;69.62;-18751.06;5023436;28;20127;-76
2023/09/08 08:40:06;;;;;;;9.40;5.22;;;;;;;26.88;67.48;-18747.28;5022650;28;20041;-76
2023/09/08 08:42:33;;;;;;;8.18;4.50;;;;;;;26.93;63.86;-18748.63;5023521;28;20081;-76
2023/09/08 08:44:59;;;;;;;7.65;4.65;;;;;;;27.17;65.11;-18755.09;5020484;28;20044;-76
2023/09/08 08:47:27;;;;;;;9.70;4.97;;;;;;;27.13;63.48;-18754.03;5021103;28;20037;-76
2023/09/08 08:49:53;;;;;;;6.97;4.43;;;;;;;27.17;63.08;-18755.09;5021877;28;20037;-76
2023/09/08 08:52:19;;;;;;;6.35;4.38;;;;;;;27.16;61.32;-18754.84;5028450;28;20490;-76
2023/09/08 08:54:45;;;;;;;8.63;4.72;;;;;;;27.48;60.36;-18763.22;5010336;28;20106;-77
2023/09/08 08:57:13;;;;;;;7.47;5.00;;;;;;;27.57;60.34;-18765.63;5023390;28;20699;-76
2023/09/08 08:59:38;;;;;;;6.60;4.53;;;;;;;27.78;59.79;-18771.16;5025138;28;20056;-76
2023/09/08 09:02:05;;;;;;;6.40;4.15;;;;;;;27.66;59.68;-18768.06;5026188;28;20065;-75
2023/09/08 09:04:31;;;;;;;6.75;4.38;;;;;;;27.71;61.13;-18769.16;5026164;28;20053;-76
2023/09/08 09:06:57;;;;;;;6.68;4.90;;;;;;;27.88;57.82;-18773.75;5026993;28;20103;-76
2023/09/08 09:09:24;;;;;;;8.57;4.90;;;;;;;28.05;56.18;-18778.19;5027583;28;20056;-75
2023/09/08 09:11:49;;;;;;;6.40;4.57;;;;;;;28.02;58.13;-18777.38;5026670;28;20416;-75
2023/09/08 09:14:17;;;;;;;8.63;5.15;;;;;;;28.15;58.32;-18780.75;5027341;28;20051;-75
2023/09/08 09:16:43;;;;;;;9.00;4.60;;;;;;;28.14;56.77;-18780.63;5024243;28;20046;-75
2023/09/08 09:19:09;;;;;;;6.57;4.72;;;;;;;28.26;56.04;-18783.72;5027188;28;20100;-75
2023/09/08 09:21:43;;;;;;;7.57;5.13;;;;;;;28.31;54.95;-18785.22;5024972;28;20042;-76
2023/09/08 09:24:16;;;;;;;7.80;4.40;;;;;;;28.31;56.16;-18785.06;5026113;28;20135;-76
2023/09/08 09:26:42;;;;;;;7.00;4.65;;;;;;;28.37;57.65;-18786.69;5008260;28;20392;-76
2023/09/08 09:29:14;;;;;;;8.25;4.82;;;;;;;28.39;56.04;-18787.22;5006068;28;20051;-75
2023/09/08 09:32:12;;;;;;;6.90;5.05;;;;;;;28.55;56.46;-18791.53;5027338;28;20432;-76
2023/09/08 09:34:48;;;;;;;5.22;4.32;;;;;;;28.60;54.69;-18792.75;4963315;28;20612;-76
2023/09/08 09:37:13;;;;;;;8.93;5.35;;;;;;;28.63;55.94;-18793.56;5027960;28;20594;-75
2023/09/08 09:39:39;;;;;;;8.95;5.13;;;;;;;28.67;56.31;-18794.66;5024799;28;20049;-75
2023/09/08 09:42:04;;;;;;;7.95;5.07;;;;;;;28.61;55.38;-18792.91;5026389;28;20041;-75
2023/09/08 09:44:30;;;;;;;7.85;4.80;;;;;;;28.55;56.20;-18791.41;5026376;28;20183;-76
2023/09/08 09:46:56;;;;;;;10.80;5.47;;;;;;;28.71;57.48;-18795.59;5024154;28;20037;-76
2023/09/08 09:49:21;;;;;;;6.55;5.00;;;;;;;29.02;59.10;-18803.94;5027627;28;20034;-75
2023/09/08 09:51:50;;;;;;;6.72;4.63;;;;;;;29.29;55.85;-18810.97;5022135;28;20033;-76
2023/09/08 09:54:16;;;;;;;7.97;4.88;;;;;;;29.39;54.63;-18813.66;5026760;28;20297;-76
2023/09/08 09:56:42;;;;;;;6.72;4.57;;;;;;;29.39;53.67;-18813.66;5022825;28;20517;-75
2023/09/08 09:59:09;;;;;;;6.90;4.97;;;;;;;29.50;54.17;-18816.34;5025576;28;20069;-76
2023/09/08 10:01:35;;;;;;;9.70;4.72;;;;;;;29.64;53.48;-18820.25;5024515;28;20042;-76
2023/09/08 10:04:03;;;;;;;6.97;4.15;;;;;;;29.78;51.74;-18823.88;5024266;28;20033;-76
2023/09/08 10:06:32;;;;;;;6.22;4.30;;;;;;;29.46;52.57;-18815.53;5011468;28;20053;-75
2023/09/08 10:08:58;;;;;;;;;;;;;;;29.69;51.86;-18821.47;5024620;28;20114;-76
2023/09/08 10:11:28;;;;;;;9.07;4.15;;;;;;;29.66;51.49;-18820.78;5008466;28;19918;-75
2023/09/08 10:13:58;;;;;;;6.38;4.47;;;;;;;29.82;51.72;-18824.97;5025602;28;20095;-75
2023/09/08 10:16:27;;;;;;;6.05;4.40;;;;;;;29.87;48.57;-18826.16;5005702;28;20096;-76
2023/09/08 10:18:56;;;;;;;7.00;4.10;;;;;;;30.01;49.67;-18829.81;5024666;28;20056;-76
2023/09/08 10:21:23;;;;;;;;;;;;;;;30.06;49.57;-18831.16;5025619;28;20485;-75
2023/09/08 10:24:04;;;;;;;6.00;4.22;;;;;;;29.98;48.83;-18829.00;5024903;28;20308;-75
2023/09/08 10:26:34;;;;;;;8.55;4.60;;;;;;;29.95;47.30;-18828.19;5025665;28;20390;-75
2023/09/08 10:29:00;;;;;;;5.90;4.43;;;;;;;30.09;48.46;-18831.97;5019258;28;20055;-76
2023/09/08 10:31:26;;;;;;;8.32;4.70;;;;;;;30.36;48.91;-18839.09;5026711;28;20040;-76
2023/09/08 10:33:54;;;;;;;6.10;4.03;;;;;;;30.33;48.24;-18838.41;5023863;28;20536;-75
2023/09/08 10:36:20;;;;;;;8.52;4.43;;;;;;;30.25;48.93;-18836.13;5024888;28;20124;-75
2023/09/08 10:38:47;;;;;;;6.15;4.55;;;;;;;30.52;49.10;-18843.25;5019165;28;20037;-75
2023/09/08 10:41:16;;;;;;;5.47;4.30;;;;;;;30.73;49.41;-18848.91;5025973;28;20565;-75
2023/09/08 10:43:57;;;;;;;8.30;4.88;;;;;;;30.83;48.81;-18851.34;5009978;28;20103;-76
2023/09/08 10:46:27;;;;;;;7.03;4.55;;;;;;;30.97;47.79;-18855.09;5007243;28;20444;-76
2023/09/08 10:48:54;;;;;;;6.28;4.07;;;;;;;30.88;47.59;-18852.81;5022611;28;20596;-76
2023/09/08 10:51:21;;;;;;;6.78;4.57;;;;;;;30.74;48.48;-18849.19;5007169;28;20041;-76
2023/09/08 10:53:50;;;;;;;9.73;4.68;;;;;;;30.87;49.22;-18852.41;5024623;28;20049;-76
2023/09/08 10:56:16;;;;;;;6.57;4.85;;;;;;;30.85;49.35;-18851.88;5007957;28;20049;-76
2023/09/08 10:58:43;;;;;;;7.63;4.70;;;;;;;30.90;47.53;-18853.34;5021016;28;20037;-76
2023/09/08 11:01:22;;;;;;;5.90;4.40;;;;;;;31.03;49.91;-18856.72;5019316;28;20150;-76
2023/09/08 11:03:49;;;;;;;6.82;4.82;;;;;;;31.09;47.42;-18858.19;5017692;28;20100;-76
2023/09/08 11:06:19;;;;;;;6.47;4.60;;;;;;;31.25;47.74;-18862.63;5021491;28;20041;-75
2023/09/08 11:08:45;;;;;;;6.60;4.65;;;;;;;31.38;46.17;-18865.84;5025951;28;20504;-76